createdAt,value
2018-06-11T00:01:12.097Z,28.93
2018-06-11T00:03:40.335Z,29.67
2018-06-11T00:06:08.420Z,29.23
2018-06-11T00:08:36.368Z,27.47
2018-06-11T00:11:04.386Z,26.77
2018-06-11T00:13:32.414Z,26.40
2018-06-11T00:16:00.348Z,29.90
2018-06-11T00:18:28.143Z,31.37
2018-06-11T00:20:56.024Z,30.30
2018-06-11T00:23:23.938Z,26.93
2018-06-11T00:25:51.962Z,27.50
2018-06-11T00:28:20.019Z,29.90
2018-06-11T00:30:47.884Z,27.77
2018-06-11T00:33:15.823Z,28.00
2018-06-11T00:35:44.058Z,31.03
2018-06-11T00:38:11.937Z,29.03
2018-06-11T00:40:39.917Z,33.43
2018-06-11T00:43:08.109Z,31.03
2018-06-11T00:45:36.345Z,30.30
2018-06-11T00:48:04.277Z,31.37
2018-06-11T00:50:32.303Z,30.13
2018-06-11T00:53:00.203Z,32.40
2018-06-11T00:55:39.318Z,29.27
2018-06-11T00:58:07.138Z,30.60
2018-06-11T01:00:35.178Z,29.83
2018-06-11T01:03:03.074Z,27.60
2018-06-11T01:05:31.042Z,29.23
2018-06-11T01:07:58.946Z,28.97
2018-06-11T01:10:26.914Z,28.50
2018-06-11T01:12:54.835Z,29.90
2018-06-11T01:15:22.861Z,30.10
2018-06-11T01:17:50.834Z,28.53
2018-06-11T01:20:18.893Z,27.13
2018-06-11T01:22:46.818Z,28.23
2018-06-11T01:25:14.672Z,30.60
2018-06-11T01:27:42.560Z,32.23
2018-06-11T01:30:11.114Z,32.73
2018-06-11T01:32:39.123Z,31.77
2018-06-11T01:35:07.045Z,33.70
2018-06-11T01:37:34.927Z,32.23
2018-06-11T01:40:02.942Z,35.20
2018-06-11T01:42:30.978Z,29.30
2018-06-11T01:44:59.026Z,35.37
2018-06-11T01:47:27.193Z,30.97
2018-06-11T01:49:54.966Z,35.83
2018-06-11T01:52:22.811Z,34.13
2018-06-11T01:54:50.818Z,34.03
2018-06-11T01:57:18.806Z,33.10
2018-06-11T01:59:46.662Z,34.07
2018-06-11T02:02:14.787Z,32.27
2018-06-11T02:04:42.941Z,38.07
2018-06-11T02:07:10.962Z,34.30
2018-06-11T02:09:38.872Z,36.07
2018-06-11T02:12:06.912Z,36.03
2018-06-11T02:14:34.869Z,32.87
2018-06-11T02:17:02.920Z,36.20
2018-06-11T02:19:30.819Z,40.80
2018-06-11T02:21:58.593Z,35.53
2018-06-11T02:24:26.476Z,34.27
2018-06-11T02:26:54.294Z,39.03
2018-06-11T02:29:22.180Z,36.90
2018-06-11T02:31:50.044Z,35.63
2018-06-11T02:34:17.907Z,33.90
2018-06-11T02:36:45.870Z,36.90
2018-06-11T02:39:13.711Z,34.07
2018-06-11T02:41:41.810Z,33.63
2018-06-11T02:44:09.730Z,35.17
2018-06-11T02:46:37.636Z,32.43
2018-06-11T02:49:05.759Z,32.30
2018-06-11T02:51:33.684Z,31.57
2018-06-11T02:54:01.529Z,31.57
2018-06-11T02:56:29.466Z,33.37
2018-06-11T02:58:57.381Z,35.00
2018-06-11T03:01:25.371Z,38.87
2018-06-11T03:03:53.284Z,35.13
2018-06-11T03:06:21.265Z,34.53
2018-06-11T03:08:49.251Z,33.20
2018-06-11T03:11:17.123Z,31.90
2018-06-11T03:13:45.087Z,32.93
2018-06-11T03:16:13.036Z,29.90
2018-06-11T03:18:40.928Z,34.90
2018-06-11T03:21:08.788Z,33.87
2018-06-11T03:23:36.764Z,30.77
2018-06-11T03:26:04.750Z,33.47
2018-06-11T03:28:32.802Z,31.53
2018-06-11T03:31:00.708Z,30.33
2018-06-11T03:33:28.601Z,28.83
2018-06-11T03:35:56.526Z,26.10
2018-06-11T03:38:24.442Z,25.53
2018-06-11T03:40:52.432Z,22.33
2018-06-11T03:43:20.396Z,23.70
2018-06-11T03:45:48.322Z,19.90
2018-06-11T03:48:16.318Z,22.27
2018-06-11T03:50:44.146Z,21.97
2018-06-11T03:53:12.073Z,25.70
2018-06-11T03:55:39.919Z,27.00
2018-06-11T03:58:07.773Z,22.83
2018-06-11T04:00:35.672Z,19.13
2018-06-11T04:03:03.752Z,23.93
2018-06-11T04:05:31.831Z,22.30
2018-06-11T04:07:59.732Z,20.03
2018-06-11T04:10:27.708Z,22.77
2018-06-11T04:12:55.772Z,20.93
2018-06-11T04:15:23.764Z,20.20
2018-06-11T04:17:51.741Z,19.17
2018-06-11T04:20:19.597Z,17.03
2018-06-11T04:22:47.437Z,17.93
2018-06-11T04:25:15.330Z,16.70
2018-06-11T04:27:43.246Z,17.03
2018-06-11T04:30:10.933Z,17.67
2018-06-11T04:32:38.881Z,20.27
2018-06-11T04:35:07.026Z,21.13
2018-06-11T04:37:34.922Z,22.17
2018-06-11T04:40:02.894Z,20.20
2018-06-11T04:42:31.268Z,20.70
2018-06-11T04:44:59.024Z,19.87
2018-06-11T04:47:26.993Z,22.53
2018-06-11T04:49:54.938Z,21.57
2018-06-11T04:52:22.822Z,25.23
2018-06-11T04:54:50.907Z,22.27
2018-06-11T04:57:18.823Z,22.93
2018-06-11T04:59:46.650Z,21.83
2018-06-11T05:02:14.598Z,20.33
2018-06-11T05:04:42.481Z,22.17
2018-06-11T05:07:10.376Z,21.60
2018-06-11T05:09:38.444Z,20.53
2018-06-11T05:12:06.391Z,21.33
2018-06-11T05:14:34.278Z,23.90
2018-06-11T05:17:02.184Z,21.50
2018-06-11T05:19:30.043Z,21.10
2018-06-11T05:21:58.052Z,21.83
2018-06-11T05:24:26.124Z,24.40
2018-06-11T05:26:54.051Z,22.23
2018-06-11T05:29:22.009Z,21.47
2018-06-11T05:31:49.933Z,23.97
2018-06-11T05:34:18.023Z,21.97
2018-06-11T05:36:45.942Z,22.53
2018-06-11T05:39:14.025Z,23.43
2018-06-11T05:41:41.897Z,21.03
2018-06-11T05:44:09.791Z,21.83
2018-06-11T05:46:37.679Z,19.80
2018-06-11T05:49:05.553Z,19.43
2018-06-11T05:51:33.519Z,21.33
2018-06-11T05:54:01.511Z,21.80
2018-06-11T05:56:29.376Z,18.73
2018-06-11T05:58:57.270Z,17.23
2018-06-11T06:01:25.233Z,18.57
2018-06-11T06:03:52.963Z,18.93
2018-06-11T06:06:20.911Z,19.73
2018-06-11T06:08:48.849Z,18.00
2018-06-11T06:11:16.711Z,19.50
2018-06-11T06:13:44.610Z,18.33
2018-06-11T06:16:12.521Z,18.43
2018-06-11T06:18:40.403Z,18.10
2018-06-11T06:21:08.279Z,17.43
2018-06-11T06:23:36.335Z,18.43
2018-06-11T06:26:04.386Z,18.20
2018-06-11T06:28:32.408Z,19.40
2018-06-11T06:31:00.322Z,20.20
2018-06-11T06:33:34.714Z,19.53
2018-06-11T06:36:02.665Z,18.23
2018-06-11T06:38:30.573Z,20.93
2018-06-11T06:40:58.551Z,19.27
2018-06-11T06:43:26.725Z,18.73
2018-06-11T06:45:54.685Z,20.73
2018-06-11T06:48:22.614Z,18.93
2018-06-11T06:50:50.581Z,25.33
2018-06-11T06:53:18.510Z,23.83
2018-06-11T06:55:46.615Z,22.53
2018-06-11T06:58:14.502Z,24.27
2018-06-11T07:00:42.459Z,22.30
2018-06-11T07:03:10.322Z,22.27
2018-06-11T07:05:38.242Z,22.53
2018-06-11T07:08:06.460Z,20.97
2018-06-11T07:10:34.409Z,24.37
2018-06-11T07:13:02.329Z,20.87
2018-06-11T07:15:30.301Z,24.20
2018-06-11T07:17:58.371Z,25.00
2018-06-11T07:20:26.264Z,24.10
2018-06-11T07:22:53.967Z,25.20
2018-06-11T07:25:21.946Z,27.90
2018-06-11T07:27:49.876Z,24.80
2018-06-11T07:30:17.807Z,27.87
2018-06-11T07:32:45.737Z,26.93
2018-06-11T07:35:13.666Z,27.10
2018-06-11T07:37:41.521Z,25.50
2018-06-11T07:40:09.497Z,25.60
2018-06-11T07:42:37.464Z,22.83
2018-06-11T07:45:05.494Z,23.27
2018-06-11T07:47:33.370Z,22.67
2018-06-11T07:50:01.219Z,20.17
2018-06-11T07:52:29.141Z,23.90
2018-06-11T07:54:57.070Z,23.05
2018-06-11T07:57:24.981Z,21.30
2018-06-11T07:59:52.872Z,22.40
2018-06-11T08:02:20.821Z,22.22
2018-06-11T08:04:48.711Z,21.80
2018-06-11T08:07:16.640Z,22.73
2018-06-11T08:09:44.521Z,20.85
2018-06-11T08:12:12.486Z,18.62
2018-06-11T08:14:40.391Z,19.05
2018-06-11T08:17:08.289Z,20.00
2018-06-11T08:19:36.249Z,19.05
2018-06-11T08:22:04.131Z,18.98
2018-06-11T08:24:32.121Z,20.62
2018-06-11T08:27:00.078Z,19.10
2018-06-11T08:29:27.934Z,19.12
2018-06-11T08:31:55.813Z,19.25
2018-06-11T08:34:23.731Z,19.30
2018-06-11T08:36:51.535Z,18.75
2018-06-11T08:39:19.427Z,19.25
2018-06-11T08:41:47.381Z,17.48
2018-06-11T08:44:15.390Z,16.60
2018-06-11T08:46:43.219Z,18.07
2018-06-11T08:49:11.134Z,16.45
2018-06-11T08:51:39.037Z,17.10
2018-06-11T08:54:06.915Z,17.42
2018-06-11T08:56:34.724Z,16.82
2018-06-11T08:59:02.507Z,16.45
2018-06-11T09:01:30.450Z,15.55
2018-06-11T09:03:58.278Z,14.63
2018-06-11T09:06:26.287Z,16.73
2018-06-11T09:08:54.281Z,16.52
2018-06-11T09:11:22.053Z,15.55
2018-06-11T09:13:50.001Z,15.13
2018-06-11T09:16:17.893Z,19.00
2018-06-11T09:18:45.768Z,18.60
2018-06-11T09:21:13.689Z,16.48
2018-06-11T09:23:41.438Z,19.27
2018-06-11T09:26:09.331Z,15.13
2018-06-11T09:28:37.102Z,16.15
2018-06-11T09:31:05.105Z,16.65
2018-06-11T09:33:32.934Z,15.68
2018-06-11T09:36:00.819Z,17.27
2018-06-11T09:38:28.847Z,17.23
2018-06-11T09:40:56.774Z,16.37
2018-06-11T09:43:24.678Z,16.32
2018-06-11T09:45:52.518Z,17.10
2018-06-11T09:48:20.492Z,15.93
2018-06-11T09:50:48.383Z,16.20
2018-06-11T09:53:16.190Z,16.55
2018-06-11T09:55:44.064Z,14.85
2018-06-11T09:58:11.975Z,17.32
2018-06-11T10:00:39.851Z,16.42
2018-06-11T10:03:07.646Z,15.63
2018-06-11T10:05:35.554Z,18.23
2018-06-11T10:08:03.511Z,17.67
2018-06-11T10:10:31.371Z,15.90
2018-06-11T10:12:59.138Z,15.60
2018-06-11T10:15:26.970Z,14.63
2018-06-11T10:17:54.836Z,15.00
2018-06-11T10:20:22.776Z,15.63
2018-06-11T10:22:50.561Z,14.55
2018-06-11T10:25:18.190Z,13.08
2018-06-11T10:27:45.984Z,15.50
2018-06-11T10:30:13.590Z,15.08
2018-06-11T10:32:41.070Z,15.15
2018-06-11T10:35:08.713Z,14.47
2018-06-11T10:37:36.324Z,14.05
2018-06-11T10:40:04.142Z,17.98
2018-06-11T10:42:31.756Z,15.38
2018-06-11T10:44:59.364Z,14.23
2018-06-11T10:47:27.001Z,14.55
2018-06-11T10:49:54.649Z,13.08
2018-06-11T10:52:22.270Z,12.20
2018-06-11T10:54:50.722Z,13.85
2018-06-11T10:57:18.292Z,13.88
2018-06-11T10:59:45.941Z,12.90
2018-06-11T11:02:13.621Z,11.05
2018-06-11T11:04:41.281Z,10.85
2018-06-11T11:07:08.885Z,10.58
2018-06-11T11:09:36.493Z,10.35
2018-06-11T11:12:04.168Z,10.38
2018-06-11T11:14:31.789Z,10.90
2018-06-11T11:16:59.424Z,10.50
2018-06-11T11:19:27.073Z,11.45
2018-06-11T11:21:54.723Z,9.70
2018-06-11T11:24:22.332Z,10.43
2018-06-11T11:26:49.850Z,12.98
2018-06-11T11:29:17.453Z,9.70
2018-06-11T11:31:45.119Z,9.53
2018-06-11T11:34:12.769Z,10.40
2018-06-11T11:36:40.410Z,11.78
2018-06-11T11:39:08.277Z,11.73
2018-06-11T11:41:35.877Z,10.53
2018-06-11T11:44:03.505Z,10.48
2018-06-11T11:46:31.142Z,10.30
2018-06-11T11:48:59.644Z,10.25
2018-06-11T11:51:27.265Z,11.95
2018-06-11T11:53:54.880Z,11.88
2018-06-11T11:56:22.535Z,9.83
2018-06-11T11:58:50.144Z,11.05
2018-06-11T12:01:17.791Z,9.83
2018-06-11T12:03:45.384Z,9.83
2018-06-11T12:06:12.978Z,10.50
2018-06-11T12:08:40.606Z,9.38
2018-06-11T12:11:08.429Z,10.48
2018-06-11T12:13:36.032Z,10.80
2018-06-11T12:16:03.803Z,11.00
2018-06-11T12:18:31.449Z,9.68
2018-06-11T12:20:59.109Z,9.93
2018-06-11T12:23:26.708Z,8.68
2018-06-11T12:25:54.316Z,9.48
2018-06-11T12:28:21.989Z,11.35
2018-06-11T12:30:49.588Z,8.68
2018-06-11T12:33:17.200Z,10.80
2018-06-11T12:35:44.836Z,9.33
2018-06-11T12:38:12.458Z,9.20
2018-06-11T12:40:40.076Z,8.90
2018-06-11T12:43:07.715Z,11.37
2018-06-11T12:45:35.373Z,13.50
2018-06-11T12:48:03.046Z,9.37
2018-06-11T12:50:30.658Z,9.03
2018-06-11T12:52:58.273Z,9.10
2018-06-11T12:55:25.870Z,9.77
2018-06-11T12:57:53.498Z,7.97
2018-06-11T13:00:21.114Z,8.90
2018-06-11T13:02:48.743Z,8.20
2018-06-11T13:05:16.378Z,7.73
2018-06-11T13:07:43.986Z,8.97
2018-06-11T13:10:11.617Z,9.53
2018-06-11T13:12:39.230Z,9.83
2018-06-11T13:15:06.929Z,7.77
2018-06-11T13:17:34.582Z,8.53
2018-06-11T13:20:02.218Z,8.00
2018-06-11T13:22:29.818Z,9.37
2018-06-11T13:24:57.412Z,9.10
2018-06-11T13:27:25.054Z,11.80
2018-06-11T13:29:52.647Z,10.90
2018-06-11T13:32:20.754Z,8.57
2018-06-11T13:34:48.325Z,11.27
2018-06-11T13:37:15.994Z,8.47
2018-06-11T13:39:43.626Z,8.30
2018-06-11T13:42:11.309Z,7.07
2018-06-11T13:44:38.968Z,7.57
2018-06-11T13:47:06.581Z,8.83
2018-06-11T13:49:34.251Z,8.10
2018-06-11T13:52:01.902Z,7.43
2018-06-11T13:54:29.689Z,8.03
2018-06-11T13:56:57.313Z,8.90
2018-06-11T13:59:25.055Z,6.87
2018-06-11T14:01:52.646Z,6.80
2018-06-11T14:04:21.077Z,5.83
2018-06-11T14:06:48.782Z,7.13
2018-06-11T14:09:16.623Z,7.03
2018-06-11T14:11:44.566Z,7.40
2018-06-11T14:14:13.338Z,7.00
2018-06-11T14:16:41.531Z,7.67
2018-06-11T14:19:09.462Z,7.03
2018-06-11T14:21:37.464Z,6.57
2018-06-11T14:24:05.337Z,9.20
2018-06-11T14:26:33.440Z,6.70
2018-06-11T14:29:01.306Z,6.43
2018-06-11T14:31:29.238Z,5.93
2018-06-11T14:33:57.071Z,9.13
2018-06-11T14:36:25.026Z,6.63
2018-06-11T14:38:52.954Z,6.20
2018-06-11T14:41:20.850Z,7.07
2018-06-11T14:43:48.754Z,6.70
2018-06-11T14:46:16.597Z,7.03
2018-06-11T14:48:44.455Z,5.97
2018-06-11T14:51:12.391Z,5.90
2018-06-11T14:53:40.317Z,5.83
2018-06-11T14:56:08.263Z,6.00
2018-06-11T14:58:36.103Z,8.10
2018-06-11T15:01:03.962Z,6.00
2018-06-11T15:03:31.970Z,7.10
2018-06-11T15:05:59.827Z,7.40
2018-06-11T15:08:27.941Z,8.93
2018-06-11T15:10:55.832Z,4.73
2018-06-11T15:13:23.726Z,5.47
2018-06-11T15:15:51.708Z,5.53
2018-06-11T15:18:19.669Z,6.50
2018-06-11T15:20:47.614Z,6.10
2018-06-11T15:23:15.553Z,7.40
2018-06-11T15:25:43.544Z,6.57
2018-06-11T15:28:11.573Z,9.70
2018-06-11T15:30:39.523Z,6.03
2018-06-11T15:33:07.446Z,7.07
2018-06-11T15:35:35.494Z,5.97
2018-06-11T15:38:03.425Z,6.53
2018-06-11T15:40:31.374Z,7.27
2018-06-11T15:42:59.267Z,5.67
2018-06-11T15:45:27.228Z,7.13
2018-06-11T15:47:55.156Z,6.20
2018-06-11T15:50:23.063Z,6.43
2018-06-11T15:52:51.085Z,5.80
2018-06-11T15:55:19.042Z,6.47
2018-06-11T15:57:46.974Z,6.37
2018-06-11T16:00:14.810Z,4.97
2018-06-11T16:02:42.901Z,10.17
2018-06-11T16:05:10.878Z,7.07
2018-06-11T16:07:38.718Z,9.80
2018-06-11T16:10:06.600Z,9.47
2018-06-11T16:12:34.643Z,9.40
2018-06-11T16:15:02.636Z,6.80
2018-06-11T16:17:30.537Z,8.60
2018-06-11T16:19:58.452Z,7.80
2018-06-11T16:22:26.131Z,7.17
2018-06-11T16:24:54.342Z,7.73
2018-06-11T16:27:22.258Z,12.10
2018-06-11T16:29:50.360Z,10.83
2018-06-11T16:32:18.249Z,8.37
2018-06-11T16:34:46.320Z,10.70
2018-06-11T16:37:14.181Z,12.93
2018-06-11T16:39:42.135Z,9.80
2018-06-11T16:42:10.058Z,10.80
2018-06-11T16:44:38.086Z,8.50
2018-06-11T16:47:06.416Z,8.57
2018-06-11T16:49:34.351Z,7.93
2018-06-11T16:52:02.302Z,10.03
2018-06-11T16:54:31.053Z,9.33
2018-06-11T16:56:59.060Z,7.60
2018-06-11T16:59:27.034Z,9.67
2018-06-11T17:01:55.093Z,6.97
2018-06-11T17:04:22.971Z,7.97
2018-06-11T17:06:50.921Z,10.63
2018-06-11T17:09:19.052Z,8.00
2018-06-11T17:11:47.221Z,10.03
2018-06-11T17:14:15.267Z,10.83
2018-06-11T17:16:43.340Z,10.80
2018-06-11T17:19:11.402Z,12.37
2018-06-11T17:21:39.381Z,8.90
2018-06-11T17:24:07.351Z,13.10
2018-06-11T17:26:35.332Z,10.57
2018-06-11T17:29:03.317Z,9.70
2018-06-11T17:31:31.266Z,8.37
2018-06-11T17:33:59.496Z,11.17
2018-06-11T17:36:28.195Z,11.73
2018-06-11T17:38:56.426Z,7.20
2018-06-11T17:41:24.546Z,12.60
2018-06-11T17:43:52.571Z,9.20
2018-06-11T17:46:20.584Z,11.30
2018-06-11T17:48:48.483Z,7.90
2018-06-11T17:51:16.377Z,7.63
2018-06-11T17:53:44.281Z,8.53
2018-06-11T17:56:12.249Z,11.57
2018-06-11T17:58:40.204Z,8.83
2018-06-11T18:01:08.142Z,9.30
2018-06-11T18:03:36.191Z,7.43
2018-06-11T18:06:04.135Z,9.33
2018-06-11T18:08:32.189Z,9.30
2018-06-11T18:11:00.330Z,11.17
2018-06-11T18:13:28.241Z,8.33
2018-06-11T18:15:56.159Z,8.73
2018-06-11T18:18:24.118Z,7.33
2018-06-11T18:20:52.110Z,10.10
2018-06-11T18:23:20.032Z,7.27
2018-06-11T18:25:47.932Z,6.87
2018-06-11T18:28:15.911Z,13.57
2018-06-11T18:30:43.931Z,10.30
2018-06-11T18:33:11.871Z,13.73
2018-06-11T18:35:39.780Z,8.07
2018-06-11T18:38:07.715Z,6.53
2018-06-11T18:40:35.587Z,8.27
2018-06-11T18:43:03.726Z,9.27
2018-06-11T18:45:31.700Z,9.70
2018-06-11T18:47:59.625Z,8.53
2018-06-11T18:50:27.679Z,7.00
2018-06-11T18:52:55.474Z,8.87
2018-06-11T18:55:23.454Z,7.73
2018-06-11T18:57:51.606Z,7.70
2018-06-11T19:00:19.731Z,10.07
2018-06-11T19:02:47.823Z,9.13
2018-06-11T19:05:15.900Z,8.60
2018-06-11T19:07:43.912Z,10.80
2018-06-11T19:10:12.102Z,8.70
2018-06-11T19:12:39.991Z,9.27
2018-06-11T19:15:08.107Z,10.37
2018-06-11T19:17:35.886Z,12.27
2018-06-11T19:20:03.849Z,8.90
2018-06-11T19:22:31.895Z,8.83
2018-06-11T19:24:59.865Z,10.03
2018-06-11T19:27:27.864Z,9.20
2018-06-11T19:29:55.776Z,13.53
2018-06-11T19:32:23.991Z,8.90
2018-06-11T19:34:51.887Z,8.57
2018-06-11T19:37:19.831Z,6.97
2018-06-11T19:39:47.769Z,12.23
2018-06-11T19:42:15.749Z,8.77
2018-06-11T19:44:43.850Z,7.60
2018-06-11T19:47:11.871Z,7.27
2018-06-11T19:49:39.734Z,9.67
2018-06-11T19:52:07.719Z,9.43
2018-06-11T19:54:35.460Z,6.60
2018-06-11T19:57:03.433Z,10.50
2018-06-11T19:59:31.438Z,7.80
2018-06-11T20:01:59.451Z,6.87
2018-06-11T20:04:27.392Z,7.70
2018-06-11T20:06:56.017Z,6.23
2018-06-11T20:09:24.084Z,7.53
2018-06-11T20:11:52.215Z,9.27
2018-06-11T20:14:20.176Z,10.43
2018-06-11T20:16:48.122Z,6.90
2018-06-11T20:19:16.305Z,6.73
2018-06-11T20:21:44.284Z,10.27
2018-06-11T20:24:12.013Z,8.70
2018-06-11T20:26:39.996Z,8.67
2018-06-11T20:29:07.826Z,6.13
2018-06-11T20:31:35.748Z,6.07
2018-06-11T20:34:03.744Z,7.23
2018-06-11T20:36:32.402Z,8.30
2018-06-11T20:39:00.341Z,7.07
2018-06-11T20:41:28.415Z,8.93
2018-06-11T20:43:56.342Z,7.77
2018-06-11T20:46:24.408Z,7.90
2018-06-11T20:48:52.383Z,6.77
2018-06-11T20:51:20.375Z,6.40
2018-06-11T20:53:48.373Z,8.40
2018-06-11T20:56:16.427Z,5.80
2018-06-11T20:58:44.391Z,7.23
2018-06-11T21:01:12.395Z,11.07
2018-06-11T21:03:40.373Z,7.27
2018-06-11T21:06:08.880Z,9.27
2018-06-11T21:08:36.865Z,7.53
2018-06-11T21:11:05.087Z,7.30
2018-06-11T21:13:33.179Z,7.00
2018-06-11T21:16:01.275Z,7.23
2018-06-11T21:18:29.066Z,7.37
2018-06-11T21:20:56.966Z,9.07
2018-06-11T21:23:25.106Z,7.47
2018-06-11T21:25:53.013Z,9.10
2018-06-11T21:28:20.940Z,8.10
2018-06-11T21:30:48.852Z,8.87
2018-06-11T21:33:17.170Z,7.50
2018-06-11T21:35:45.118Z,9.03
2018-06-11T21:38:13.168Z,11.20
2018-06-11T21:40:41.158Z,10.07
2018-06-11T21:43:09.225Z,9.20
2018-06-11T21:45:37.259Z,14.47
2018-06-11T21:48:05.301Z,11.67
2018-06-11T21:50:33.089Z,9.00
2018-06-11T21:53:01.054Z,8.37
2018-06-11T21:55:29.116Z,11.07
2018-06-11T21:57:57.127Z,10.30
2018-06-11T22:00:25.143Z,10.67
2018-06-11T22:02:53.128Z,11.63
2018-06-11T22:05:21.134Z,12.33
2018-06-11T22:07:49.155Z,11.43
2018-06-11T22:10:17.041Z,12.73
2018-06-11T22:12:45.166Z,9.97
2018-06-11T22:15:13.138Z,11.00
2018-06-11T22:17:41.180Z,10.50
2018-06-11T22:20:09.095Z,11.80
2018-06-11T22:22:37.047Z,10.93
2018-06-11T22:25:04.922Z,10.60
2018-06-11T22:27:32.790Z,12.30
2018-06-11T22:30:00.718Z,10.17
2018-06-11T22:32:28.578Z,12.37
2018-06-11T22:34:56.465Z,12.53
2018-06-11T22:37:24.419Z,12.13
2018-06-11T22:39:52.312Z,11.37
2018-06-11T22:42:23.456Z,11.47
2018-06-11T22:44:51.430Z,15.50
2018-06-11T22:47:19.316Z,14.70
2018-06-11T22:49:47.066Z,14.37
2018-06-11T22:52:15.003Z,12.93
2018-06-11T22:54:42.955Z,11.67
2018-06-11T22:57:10.752Z,12.17
2018-06-11T22:59:38.610Z,12.10
2018-06-11T23:02:06.505Z,11.73
2018-06-11T23:04:34.352Z,14.03
2018-06-11T23:07:02.237Z,14.53
2018-06-11T23:09:30.222Z,17.10
2018-06-11T23:11:58.239Z,15.97
2018-06-11T23:14:26.209Z,12.97
2018-06-11T23:16:54.142Z,13.33
2018-06-11T23:19:22.082Z,15.00
2018-06-11T23:21:50.005Z,13.37
2018-06-11T23:24:17.923Z,12.67
2018-06-11T23:26:45.994Z,13.97
2018-06-11T23:29:13.939Z,14.37
2018-06-11T23:31:41.847Z,14.43
2018-06-11T23:34:09.780Z,13.43
2018-06-11T23:36:37.682Z,14.37
2018-06-11T23:39:06.953Z,13.60
2018-06-11T23:41:35.101Z,14.20
2018-06-11T23:44:03.046Z,16.60
2018-06-11T23:46:31.046Z,15.73
2018-06-11T23:48:59.050Z,16.87
2018-06-11T23:51:26.963Z,17.50
2018-06-11T23:53:54.889Z,14.37
2018-06-11T23:56:22.829Z,15.07
2018-06-11T23:58:50.649Z,14.03
